sensor_id;sensor_type;location;lat;lon;timestamp;temperature;humidity
68439;SHT31;55421;51.600;5.718;2023-04-03T00:01:07;4.18;75.84
68439;SHT31;55421;51.600;5.718;2023-04-03T00:03:34;4.14;76.00
68439;SHT31;55421;51.600;5.718;2023-04-03T00:06:00;4.12;76.00
68439;SHT31;55421;51.600;5.718;2023-04-03T00:08:27;4.09;76.00
68439;SHT31;55421;51.600;5.718;2023-04-03T00:10:56;4.09;76.14
68439;SHT31;55421;51.600;5.718;2023-04-03T00:13:24;4.10;76.39
68439;SHT31;55421;51.600;5.718;2023-04-03T00:15:51;4.13;76.38
68439;SHT31;55421;51.600;5.718;2023-04-03T00:18:18;4.17;76.39
68439;SHT31;55421;51.600;5.718;2023-04-03T00:20:47;4.17;76.26
68439;SHT31;55421;51.600;5.718;2023-04-03T00:23:14;4.18;76.21
68439;SHT31;55421;51.600;5.718;2023-04-03T00:25:41;4.16;76.15
68439;SHT31;55421;51.600;5.718;2023-04-03T00:28:08;4.12;76.04
68439;SHT31;55421;51.600;5.718;2023-04-03T00:30:36;4.07;75.94
68439;SHT31;55421;51.600;5.718;2023-04-03T00:33:02;4.04;75.83
68439;SHT31;55421;51.600;5.718;2023-04-03T00:35:29;4.01;76.00
68439;SHT31;55421;51.600;5.718;2023-04-03T00:37:56;4.00;76.15
68439;SHT31;55421;51.600;5.718;2023-04-03T00:40:23;3.98;76.41
68439;SHT31;55421;51.600;5.718;2023-04-03T00:42:55;3.97;76.51
68439;SHT31;55421;51.600;5.718;2023-04-03T00:45:27;3.95;76.50
68439;SHT31;55421;51.600;5.718;2023-04-03T00:48:21;3.94;76.61
68439;SHT31;55421;51.600;5.718;2023-04-03T00:50:55;3.94;76.78
68439;SHT31;55421;51.600;5.718;2023-04-03T00:53:43;3.96;76.87
68439;SHT31;55421;51.600;5.718;2023-04-03T00:56:18;3.95;76.88
68439;SHT31;55421;51.600;5.718;2023-04-03T00:58:59;3.91;76.89
68439;SHT31;55421;51.600;5.718;2023-04-03T01:01:32;3.87;76.92
68439;SHT31;55421;51.600;5.718;2023-04-03T01:03:59;3.86;77.02
68439;SHT31;55421;51.600;5.718;2023-04-03T01:06:33;3.84;77.10
68439;SHT31;55421;51.600;5.718;2023-04-03T01:09:03;3.83;77.18
68439;SHT31;55421;51.600;5.718;2023-04-03T01:11:31;3.83;77.25
68439;SHT31;55421;51.600;5.718;2023-04-03T01:13:58;3.83;77.28
68439;SHT31;55421;51.600;5.718;2023-04-03T01:16:24;3.83;77.21
68439;SHT31;55421;51.600;5.718;2023-04-03T01:18:51;3.83;77.13
68439;SHT31;55421;51.600;5.718;2023-04-03T01:24:37;3.86;77.20
68439;SHT31;55421;51.600;5.718;2023-04-03T01:27:06;3.88;77.18
68439;SHT31;55421;51.600;5.718;2023-04-03T01:29:36;3.89;77.11
68439;SHT31;55421;51.600;5.718;2023-04-03T01:32:03;3.89;77.10
68439;SHT31;55421;51.600;5.718;2023-04-03T01:34:31;3.88;77.04
68439;SHT31;55421;51.600;5.718;2023-04-03T01:36:58;3.85;76.99
68439;SHT31;55421;51.600;5.718;2023-04-03T01:39:24;3.82;76.93
68439;SHT31;55421;51.600;5.718;2023-04-03T01:41:51;3.79;76.91
68439;SHT31;55421;51.600;5.718;2023-04-03T01:44:18;3.75;76.90
68439;SHT31;55421;51.600;5.718;2023-04-03T01:46:44;3.74;76.90
68439;SHT31;55421;51.600;5.718;2023-04-03T01:49:11;3.72;76.90
68439;SHT31;55421;51.600;5.718;2023-04-03T01:51:38;3.71;76.90
68439;SHT31;55421;51.600;5.718;2023-04-03T01:54:04;3.68;76.90
68439;SHT31;55421;51.600;5.718;2023-04-03T01:56:31;3.65;76.90
68439;SHT31;55421;51.600;5.718;2023-04-03T01:58:57;3.63;77.00
68439;SHT31;55421;51.600;5.718;2023-04-03T02:01:24;3.62;76.99
68439;SHT31;55421;51.600;5.718;2023-04-03T02:03:52;3.62;76.93
68439;SHT31;55421;51.600;5.718;2023-04-03T02:06:19;3.61;76.94
68439;SHT31;55421;51.600;5.718;2023-04-03T02:08:45;3.60;76.91
68439;SHT31;55421;51.600;5.718;2023-04-03T02:11:12;3.58;76.91
68439;SHT31;55421;51.600;5.718;2023-04-03T02:13:38;3.56;76.91
68439;SHT31;55421;51.600;5.718;2023-04-03T02:16:08;3.54;77.00
68439;SHT31;55421;51.600;5.718;2023-04-03T02:18:37;3.54;77.00
68439;SHT31;55421;51.600;5.718;2023-04-03T02:21:04;3.54;77.04
68439;SHT31;55421;51.600;5.718;2023-04-03T02:23:30;3.55;77.09
68439;SHT31;55421;51.600;5.718;2023-04-03T02:26:04;3.53;77.07
68439;SHT31;55421;51.600;5.718;2023-04-03T02:28:37;3.50;77.02
68439;SHT31;55421;51.600;5.718;2023-04-03T02:31:05;3.48;77.09
68439;SHT31;55421;51.600;5.718;2023-04-03T02:33:35;3.44;77.10
68439;SHT31;55421;51.600;5.718;2023-04-03T02:36:06;3.43;77.12
68439;SHT31;55421;51.600;5.718;2023-04-03T02:38:33;3.42;77.20
68439;SHT31;55421;51.600;5.718;2023-04-03T02:41:02;3.41;77.29
68439;SHT31;55421;51.600;5.718;2023-04-03T02:43:34;3.42;77.30
68439;SHT31;55421;51.600;5.718;2023-04-03T02:46:01;3.43;77.36
68439;SHT31;55421;51.600;5.718;2023-04-03T02:48:27;3.43;77.36
68439;SHT31;55421;51.600;5.718;2023-04-03T02:50:54;3.41;77.32
68439;SHT31;55421;51.600;5.718;2023-04-03T02:53:21;3.37;77.30
68439;SHT31;55421;51.600;5.718;2023-04-03T02:55:49;3.34;77.37
68439;SHT31;55421;51.600;5.718;2023-04-03T02:58:15;3.31;77.40
68439;SHT31;55421;51.600;5.718;2023-04-03T03:00:42;3.29;77.48
68439;SHT31;55421;51.600;5.718;2023-04-03T03:05:39;3.28;77.60
68439;SHT31;55421;51.600;5.718;2023-04-03T03:08:05;3.27;77.63
68439;SHT31;55421;51.600;5.718;2023-04-03T03:10:32;3.27;77.69
68439;SHT31;55421;51.600;5.718;2023-04-03T03:12:58;3.25;77.70
68439;SHT31;55421;51.600;5.718;2023-04-03T03:15:25;3.24;77.70
68439;SHT31;55421;51.600;5.718;2023-04-03T03:17:53;3.23;77.72
68439;SHT31;55421;51.600;5.718;2023-04-03T03:20:20;3.21;77.78
68439;SHT31;55421;51.600;5.718;2023-04-03T03:22:47;3.19;77.80
68439;SHT31;55421;51.600;5.718;2023-04-03T03:25:13;3.18;77.84
68439;SHT31;55421;51.600;5.718;2023-04-03T03:27:40;3.18;77.83
68439;SHT31;55421;51.600;5.718;2023-04-03T03:30:07;3.17;77.89
68439;SHT31;55421;51.600;5.718;2023-04-03T03:32:33;3.18;77.90
68439;SHT31;55421;51.600;5.718;2023-04-03T03:35:00;3.18;77.82
68439;SHT31;55421;51.600;5.718;2023-04-03T03:37:26;3.17;77.80
68439;SHT31;55421;51.600;5.718;2023-04-03T03:39:53;3.15;77.79
68439;SHT31;55421;51.600;5.718;2023-04-03T03:42:20;3.13;77.71
68439;SHT31;55421;51.600;5.718;2023-04-03T03:44:46;3.07;77.68
68439;SHT31;55421;51.600;5.718;2023-04-03T03:47:13;3.03;77.68
68439;SHT31;55421;51.600;5.718;2023-04-03T03:49:39;2.98;77.71
68439;SHT31;55421;51.600;5.718;2023-04-03T03:52:06;2.95;77.80
68439;SHT31;55421;51.600;5.718;2023-04-03T03:54:36;2.92;77.81
68439;SHT31;55421;51.600;5.718;2023-04-03T03:57:04;2.90;77.89
68439;SHT31;55421;51.600;5.718;2023-04-03T03:59:31;2.89;77.90
68439;SHT31;55421;51.600;5.718;2023-04-03T04:01:57;2.87;77.90
68439;SHT31;55421;51.600;5.718;2023-04-03T04:04:24;2.84;77.90
68439;SHT31;55421;51.600;5.718;2023-04-03T04:06:50;2.82;77.96
68439;SHT31;55421;51.600;5.718;2023-04-03T04:09:17;2.80;77.98
68439;SHT31;55421;51.600;5.718;2023-04-03T04:11:44;2.77;77.99
68439;SHT31;55421;51.600;5.718;2023-04-03T04:14:11;2.75;78.00
68439;SHT31;55421;51.600;5.718;2023-04-03T04:16:39;2.73;78.03
68439;SHT31;55421;51.600;5.718;2023-04-03T04:19:05;2.72;78.10
68439;SHT31;55421;51.600;5.718;2023-04-03T04:21:32;2.71;78.16
68439;SHT31;55421;51.600;5.718;2023-04-03T04:23:58;2.70;78.16
68439;SHT31;55421;51.600;5.718;2023-04-03T04:26:25;2.70;78.19
68439;SHT31;55421;51.600;5.718;2023-04-03T04:28:52;2.67;78.20
68439;SHT31;55421;51.600;5.718;2023-04-03T04:31:18;2.66;78.21
68439;SHT31;55421;51.600;5.718;2023-04-03T04:33:44;2.63;78.21
68439;SHT31;55421;51.600;5.718;2023-04-03T04:36:11;2.60;78.26
68439;SHT31;55421;51.600;5.718;2023-04-03T04:38:38;2.56;78.29
68439;SHT31;55421;51.600;5.718;2023-04-03T04:41:04;2.55;78.30
68439;SHT31;55421;51.600;5.718;2023-04-03T04:43:31;2.52;78.30
68439;SHT31;55421;51.600;5.718;2023-04-03T04:46:07;2.50;78.38
68439;SHT31;55421;51.600;5.718;2023-04-03T04:48:38;2.50;78.40
68439;SHT31;55421;51.600;5.718;2023-04-03T04:51:06;2.50;78.47
68439;SHT31;55421;51.600;5.718;2023-04-03T04:53:33;2.52;78.50
68439;SHT31;55421;51.600;5.718;2023-04-03T04:55:59;2.53;78.50
68439;SHT31;55421;51.600;5.718;2023-04-03T04:58:26;2.54;78.50
68439;SHT31;55421;51.600;5.718;2023-04-03T05:01:03;2.53;78.48
68439;SHT31;55421;51.600;5.718;2023-04-03T05:03:35;2.51;78.50
68439;SHT31;55421;51.600;5.718;2023-04-03T05:06:02;2.48;78.44
68439;SHT31;55421;51.600;5.718;2023-04-03T05:08:29;2.45;78.49
68439;SHT31;55421;51.600;5.718;2023-04-03T05:10:56;2.43;78.50
68439;SHT31;55421;51.600;5.718;2023-04-03T05:13:22;2.43;78.50
68439;SHT31;55421;51.600;5.718;2023-04-03T05:15:49;2.44;78.50
68439;SHT31;55421;51.600;5.718;2023-04-03T05:18:15;2.47;78.50
68439;SHT31;55421;51.600;5.718;2023-04-03T05:20:42;2.49;78.45
68439;SHT31;55421;51.600;5.718;2023-04-03T05:23:10;2.50;78.40
68439;SHT31;55421;51.600;5.718;2023-04-03T05:25:37;2.52;78.40
68439;SHT31;55421;51.600;5.718;2023-04-03T05:28:05;2.52;78.37
68439;SHT31;55421;51.600;5.718;2023-04-03T05:30:33;2.55;78.32
68439;SHT31;55421;51.600;5.718;2023-04-03T05:32:59;2.58;78.34
68439;SHT31;55421;51.600;5.718;2023-04-03T05:35:26;2.63;78.32
68439;SHT31;55421;51.600;5.718;2023-04-03T05:37:52;2.65;78.29
68439;SHT31;55421;51.600;5.718;2023-04-03T05:40:19;2.68;78.25
68439;SHT31;55421;51.600;5.718;2023-04-03T05:42:46;2.73;78.20
68439;SHT31;55421;51.600;5.718;2023-04-03T05:45:12;2.75;78.19
68439;SHT31;55421;51.600;5.718;2023-04-03T05:47:39;2.77;78.12
68439;SHT31;55421;51.600;5.718;2023-04-03T05:50:06;2.80;78.09
68439;SHT31;55421;51.600;5.718;2023-04-03T05:52:34;2.83;78.00
68439;SHT31;55421;51.600;5.718;2023-04-03T05:55:04;2.87;77.99
68439;SHT31;55421;51.600;5.718;2023-04-03T05:57:31;2.89;77.90
68439;SHT31;55421;51.600;5.718;2023-04-03T05:59:57;2.93;77.84
68439;SHT31;55421;51.600;5.718;2023-04-03T06:02:24;2.97;77.80
68439;SHT31;55421;51.600;5.718;2023-04-03T06:04:52;3.02;77.77
68439;SHT31;55421;51.600;5.718;2023-04-03T06:07:22;3.04;77.66
68439;SHT31;55421;51.600;5.718;2023-04-03T06:09:54;3.06;77.52
68439;SHT31;55421;51.600;5.718;2023-04-03T06:12:23;3.08;77.50
68439;SHT31;55421;51.600;5.718;2023-04-03T06:14:50;3.08;77.37
68439;SHT31;55421;51.600;5.718;2023-04-03T06:17:17;3.11;77.30
68439;SHT31;55421;51.600;5.718;2023-04-03T06:19:44;3.14;77.23
68439;SHT31;55421;51.600;5.718;2023-04-03T06:22:11;3.17;77.22
68439;SHT31;55421;51.600;5.718;2023-04-03T06:24:38;3.20;77.17
68439;SHT31;55421;51.600;5.718;2023-04-03T06:27:05;3.24;77.10
68439;SHT31;55421;51.600;5.718;2023-04-03T06:29:32;3.29;76.99
68439;SHT31;55421;51.600;5.718;2023-04-03T06:31:58;3.34;76.82
68439;SHT31;55421;51.600;5.718;2023-04-03T06:34:25;3.38;76.72
68439;SHT31;55421;51.600;5.718;2023-04-03T06:36:51;3.43;76.65
68439;SHT31;55421;51.600;5.718;2023-04-03T06:39:19;3.47;76.60
68439;SHT31;55421;51.600;5.718;2023-04-03T06:41:48;3.54;76.69
68439;SHT31;55421;51.600;5.718;2023-04-03T06:44:17;3.59;76.52
68439;SHT31;55421;51.600;5.718;2023-04-03T06:46:43;3.64;76.30
68439;SHT31;55421;51.600;5.718;2023-04-03T06:49:12;3.69;76.27
68439;SHT31;55421;51.600;5.718;2023-04-03T06:51:39;3.76;76.40
68439;SHT31;55421;51.600;5.718;2023-04-03T06:54:05;3.82;76.29
68439;SHT31;55421;51.600;5.718;2023-04-03T06:56:34;3.88;76.23
68439;SHT31;55421;51.600;5.718;2023-04-03T06:59:01;3.92;76.10
68439;SHT31;55421;51.600;5.718;2023-04-03T07:01:28;3.96;75.97
68439;SHT31;55421;51.600;5.718;2023-04-03T07:03:56;4.01;75.73
68439;SHT31;55421;51.600;5.718;2023-04-03T07:06:23;4.08;75.80
68439;SHT31;55421;51.600;5.718;2023-04-03T07:08:53;4.16;75.84
68439;SHT31;55421;51.600;5.718;2023-04-03T07:11:20;4.22;75.58
68439;SHT31;55421;51.600;5.718;2023-04-03T07:13:47;4.24;75.10
68439;SHT31;55421;51.600;5.718;2023-04-03T07:16:14;4.28;75.03
68439;SHT31;55421;51.600;5.718;2023-04-03T07:18:41;4.29;74.86
68439;SHT31;55421;51.600;5.718;2023-04-03T07:21:07;4.34;74.87
68439;SHT31;55421;51.600;5.718;2023-04-03T07:23:34;4.38;74.86
68439;SHT31;55421;51.600;5.718;2023-04-03T07:26:00;4.43;74.57
68439;SHT31;55421;51.600;5.718;2023-04-03T07:28:27;4.44;74.29
68439;SHT31;55421;51.600;5.718;2023-04-03T07:30:58;4.50;74.47
68439;SHT31;55421;51.600;5.718;2023-04-03T07:33:34;4.59;74.37
68439;SHT31;55421;51.600;5.718;2023-04-03T07:36:01;4.63;74.05
68439;SHT31;55421;51.600;5.718;2023-04-03T07:38:28;4.72;74.13
68439;SHT31;55421;51.600;5.718;2023-04-03T07:40:55;4.80;74.09
68439;SHT31;55421;51.600;5.718;2023-04-03T07:43:22;4.86;73.68
68439;SHT31;55421;51.600;5.718;2023-04-03T07:45:50;4.91;73.47
68439;SHT31;55421;51.600;5.718;2023-04-03T07:48:18;4.95;73.32
68439;SHT31;55421;51.600;5.718;2023-04-03T07:50:47;5.01;73.31
68439;SHT31;55421;51.600;5.718;2023-04-03T07:53:14;5.09;73.40
68439;SHT31;55421;51.600;5.718;2023-04-03T07:55:41;5.18;73.23
68439;SHT31;55421;51.600;5.718;2023-04-03T07:58:11;5.24;72.68
68439;SHT31;55421;51.600;5.718;2023-04-03T08:00:40;5.26;72.17
68439;SHT31;55421;51.600;5.718;2023-04-03T08:03:08;5.29;72.14
68439;SHT31;55421;51.600;5.718;2023-04-03T08:05:38;5.35;72.10
68439;SHT31;55421;51.600;5.718;2023-04-03T08:08:07;5.40;72.15
68439;SHT31;55421;51.600;5.718;2023-04-03T08:10:36;5.47;71.97
68439;SHT31;55421;51.600;5.718;2023-04-03T08:13:03;5.52;71.65
68439;SHT31;55421;51.600;5.718;2023-04-03T08:15:30;5.58;71.41
68439;SHT31;55421;51.600;5.718;2023-04-03T08:17:58;5.62;70.67
68439;SHT31;55421;51.600;5.718;2023-04-03T08:20:25;5.65;70.25
68439;SHT31;55421;51.600;5.718;2023-04-03T08:22:53;5.70;70.02
68439;SHT31;55421;51.600;5.718;2023-04-03T08:25:19;5.74;69.76
68439;SHT31;55421;51.600;5.718;2023-04-03T08:27:46;5.78;69.34
68439;SHT31;55421;51.600;5.718;2023-04-03T08:30:13;5.81;69.05
68439;SHT31;55421;51.600;5.718;2023-04-03T08:32:40;5.85;68.62
68439;SHT31;55421;51.600;5.718;2023-04-03T08:35:09;5.88;68.47
68439;SHT31;55421;51.600;5.718;2023-04-03T08:37:37;5.94;68.41
68439;SHT31;55421;51.600;5.718;2023-04-03T08:40:05;5.96;67.51
68439;SHT31;55421;51.600;5.718;2023-04-03T08:45:38;6.03;66.46
68439;SHT31;55421;51.600;5.718;2023-04-03T08:48:23;6.11;66.58
68439;SHT31;55421;51.600;5.718;2023-04-03T08:50:58;6.16;65.01
68439;SHT31;55421;51.600;5.718;2023-04-03T08:53:32;6.20;64.06
68439;SHT31;55421;51.600;5.718;2023-04-03T08:56:04;6.26;63.77
68439;SHT31;55421;51.600;5.718;2023-04-03T09:01:28;6.44;62.60
68439;SHT31;55421;51.600;5.718;2023-04-03T09:04:01;6.49;61.63
68439;SHT31;55421;51.600;5.718;2023-04-03T09:06:38;6.57;60.94
68439;SHT31;55421;51.600;5.718;2023-04-03T09:12:00;6.69;60.11
68439;SHT31;55421;51.600;5.718;2023-04-03T09:17:37;6.82;58.93
68439;SHT31;55421;51.600;5.718;2023-04-03T09:22:52;6.93;58.78
68439;SHT31;55421;51.600;5.718;2023-04-03T09:25:21;7.00;58.37
68439;SHT31;55421;51.600;5.718;2023-04-03T09:27:55;7.07;58.10
68439;SHT31;55421;51.600;5.718;2023-04-03T09:30:24;7.14;57.57
68439;SHT31;55421;51.600;5.718;2023-04-03T09:32:55;7.20;57.10
68439;SHT31;55421;51.600;5.718;2023-04-03T09:35:24;7.21;54.96
68439;SHT31;55421;51.600;5.718;2023-04-03T09:37:53;7.21;53.84
68439;SHT31;55421;51.600;5.718;2023-04-03T09:42:53;7.21;53.04
68439;SHT31;55421;51.600;5.718;2023-04-03T09:45:29;7.26;53.92
68439;SHT31;55421;51.600;5.718;2023-04-03T09:50:52;7.35;51.08
68439;SHT31;55421;51.600;5.718;2023-04-03T09:53:29;7.41;51.61
68439;SHT31;55421;51.600;5.718;2023-04-03T09:56:03;7.48;51.34
68439;SHT31;55421;51.600;5.718;2023-04-03T09:58:51;7.55;50.45
68439;SHT31;55421;51.600;5.718;2023-04-03T10:04:07;7.74;50.27
68439;SHT31;55421;51.600;5.718;2023-04-03T10:06:43;7.78;48.45
68439;SHT31;55421;51.600;5.718;2023-04-03T10:12:06;7.92;48.81
68439;SHT31;55421;51.600;5.718;2023-04-03T10:14:39;7.99;48.40
68439;SHT31;55421;51.600;5.718;2023-04-03T10:20:35;8.15;46.83
68439;SHT31;55421;51.600;5.718;2023-04-03T10:23:21;8.19;46.08
68439;SHT31;55421;51.600;5.718;2023-04-03T10:29:09;8.29;46.06
68439;SHT31;55421;51.600;5.718;2023-04-03T10:50:22;8.73;44.33
68439;SHT31;55421;51.600;5.718;2023-04-03T10:53:20;8.78;45.21
68439;SHT31;55421;51.600;5.718;2023-04-03T10:56:14;8.85;44.91
68439;SHT31;55421;51.600;5.718;2023-04-03T10:58:48;8.85;43.70
68439;SHT31;55421;51.600;5.718;2023-04-03T11:01:40;8.90;44.05
68439;SHT31;55421;51.600;5.718;2023-04-03T11:04:10;8.97;44.82
68439;SHT31;55421;51.600;5.718;2023-04-03T11:06:45;9.05;44.24
68439;SHT31;55421;51.600;5.718;2023-04-03T11:09:25;9.13;43.99
68439;SHT31;55421;51.600;5.718;2023-04-03T11:12:00;9.20;43.93
68439;SHT31;55421;51.600;5.718;2023-04-03T11:14:33;9.28;43.30
68439;SHT31;55421;51.600;5.718;2023-04-03T11:25:18;9.27;39.98
68439;SHT31;55421;51.600;5.718;2023-04-03T11:33:47;9.45;40.20
68439;SHT31;55421;51.600;5.718;2023-04-03T11:36:32;9.45;39.41
68439;SHT31;55421;51.600;5.718;2023-04-03T11:39:29;9.44;39.70
68439;SHT31;55421;51.600;5.718;2023-04-03T11:45:25;9.56;40.00
68439;SHT31;55421;51.600;5.718;2023-04-03T11:48:42;9.57;40.05
68439;SHT31;55421;51.600;5.718;2023-04-03T11:53:44;9.62;41.57
68439;SHT31;55421;51.600;5.718;2023-04-03T11:56:32;9.63;41.44
68439;SHT31;55421;51.600;5.718;2023-04-03T12:04:16;9.68;42.05
68439;SHT31;55421;51.600;5.718;2023-04-03T12:09:23;9.72;41.87
68439;SHT31;55421;51.600;5.718;2023-04-03T12:12:21;9.71;42.59
68439;SHT31;55421;51.600;5.718;2023-04-03T12:14:55;9.75;43.59
68439;SHT31;55421;51.600;5.718;2023-04-03T12:17:26;9.77;42.87
68439;SHT31;55421;51.600;5.718;2023-04-03T12:19:55;9.76;42.78
68439;SHT31;55421;51.600;5.718;2023-04-03T12:22:21;9.77;43.30
68439;SHT31;55421;51.600;5.718;2023-04-03T12:24:50;9.77;43.05
68439;SHT31;55421;51.600;5.718;2023-04-03T12:27:28;9.79;43.64
68439;SHT31;55421;51.600;5.718;2023-04-03T12:42:09;9.82;43.45
68439;SHT31;55421;51.600;5.718;2023-04-03T12:47:22;9.86;43.78
68439;SHT31;55421;51.600;5.718;2023-04-03T12:49:53;9.89;43.80
68439;SHT31;55421;51.600;5.718;2023-04-03T12:52:41;9.90;43.97
68439;SHT31;55421;51.600;5.718;2023-04-03T12:55:15;9.89;44.08
68439;SHT31;55421;51.600;5.718;2023-04-03T12:57:44;9.89;44.02
68439;SHT31;55421;51.600;5.718;2023-04-03T13:00:18;9.88;42.83
68439;SHT31;55421;51.600;5.718;2023-04-03T13:03:00;9.82;43.01
68439;SHT31;55421;51.600;5.718;2023-04-03T13:05:29;9.89;44.52
68439;SHT31;55421;51.600;5.718;2023-04-03T13:08:02;9.90;43.87
68439;SHT31;55421;51.600;5.718;2023-04-03T13:10:42;9.91;44.09
68439;SHT31;55421;51.600;5.718;2023-04-03T13:13:24;9.93;43.68
68439;SHT31;55421;51.600;5.718;2023-04-03T13:15:52;9.93;43.91
68439;SHT31;55421;51.600;5.718;2023-04-03T13:18:22;9.93;43.51
68439;SHT31;55421;51.600;5.718;2023-04-03T13:21:00;9.93;43.73
68439;SHT31;55421;51.600;5.718;2023-04-03T13:23:39;9.95;44.59
68439;SHT31;55421;51.600;5.718;2023-04-03T13:26:11;10.02;45.49
68439;SHT31;55421;51.600;5.718;2023-04-03T13:28:39;10.05;45.28
68439;SHT31;55421;51.600;5.718;2023-04-03T13:31:29;10.08;45.62
68439;SHT31;55421;51.600;5.718;2023-04-03T13:36:40;10.11;45.51
68439;SHT31;55421;51.600;5.718;2023-04-03T13:41:45;10.17;45.20
68439;SHT31;55421;51.600;5.718;2023-04-03T13:46:52;10.10;45.17
68439;SHT31;55421;51.600;5.718;2023-04-03T13:49:44;10.10;45.40
68439;SHT31;55421;51.600;5.718;2023-04-03T14:03:19;10.07;45.69
68439;SHT31;55421;51.600;5.718;2023-04-03T14:05:55;10.12;45.56
68439;SHT31;55421;51.600;5.718;2023-04-03T14:08:22;10.15;45.70
68439;SHT31;55421;51.600;5.718;2023-04-03T14:10:49;10.20;46.04
68439;SHT31;55421;51.600;5.718;2023-04-03T14:13:17;10.21;45.59
68439;SHT31;55421;51.600;5.718;2023-04-03T14:15:46;10.16;45.17
68439;SHT31;55421;51.600;5.718;2023-04-03T14:18:16;10.14;45.43
68439;SHT31;55421;51.600;5.718;2023-04-03T14:20:47;10.13;45.22
68439;SHT31;55421;51.600;5.718;2023-04-03T14:23:15;10.10;44.86
68439;SHT31;55421;51.600;5.718;2023-04-03T14:25:42;10.07;45.27
68439;SHT31;55421;51.600;5.718;2023-04-03T14:28:16;10.09;45.58
68439;SHT31;55421;51.600;5.718;2023-04-03T14:30:49;10.14;45.57
68439;SHT31;55421;51.600;5.718;2023-04-03T14:33:18;10.13;44.78
68439;SHT31;55421;51.600;5.718;2023-04-03T14:35:48;10.06;44.46
68439;SHT31;55421;51.600;5.718;2023-04-03T14:38:20;10.06;45.32
68439;SHT31;55421;51.600;5.718;2023-04-03T14:40:51;10.08;45.98
68439;SHT31;55421;51.600;5.718;2023-04-03T14:43:19;10.12;45.87
68439;SHT31;55421;51.600;5.718;2023-04-03T14:45:47;10.09;45.39
68439;SHT31;55421;51.600;5.718;2023-04-03T14:48:22;10.05;44.72
68439;SHT31;55421;51.600;5.718;2023-04-03T14:50:53;9.98;44.96
68439;SHT31;55421;51.600;5.718;2023-04-03T14:53:20;9.99;45.42
68439;SHT31;55421;51.600;5.718;2023-04-03T14:55:51;10.01;45.81
68439;SHT31;55421;51.600;5.718;2023-04-03T14:58:19;10.03;46.09
68439;SHT31;55421;51.600;5.718;2023-04-03T15:00:47;10.03;45.66
68439;SHT31;55421;51.600;5.718;2023-04-03T15:03:14;10.03;46.19
68439;SHT31;55421;51.600;5.718;2023-04-03T15:05:47;10.04;46.43
68439;SHT31;55421;51.600;5.718;2023-04-03T15:08:17;10.05;46.55
68439;SHT31;55421;51.600;5.718;2023-04-03T15:10:48;10.07;46.62
68439;SHT31;55421;51.600;5.718;2023-04-03T15:13:16;10.08;46.82
68439;SHT31;55421;51.600;5.718;2023-04-03T15:15:42;10.07;46.61
68439;SHT31;55421;51.600;5.718;2023-04-03T15:18:10;10.05;46.18
68439;SHT31;55421;51.600;5.718;2023-04-03T15:20:45;10.01;45.64
68439;SHT31;55421;51.600;5.718;2023-04-03T15:23:14;9.96;45.85
68439;SHT31;55421;51.600;5.718;2023-04-03T15:25:43;9.95;46.16
68439;SHT31;55421;51.600;5.718;2023-04-03T15:28:17;9.93;45.77
68439;SHT31;55421;51.600;5.718;2023-04-03T15:31:08;9.87;45.73
68439;SHT31;55421;51.600;5.718;2023-04-03T15:33:35;9.84;45.44
68439;SHT31;55421;51.600;5.718;2023-04-03T15:36:03;9.84;45.89
68439;SHT31;55421;51.600;5.718;2023-04-03T15:38:31;9.85;46.11
68439;SHT31;55421;51.600;5.718;2023-04-03T15:40:59;9.86;46.18
68439;SHT31;55421;51.600;5.718;2023-04-03T15:43:26;9.85;46.14
68439;SHT31;55421;51.600;5.718;2023-04-03T15:45:55;9.81;46.13
68439;SHT31;55421;51.600;5.718;2023-04-03T15:48:25;9.79;46.53
68439;SHT31;55421;51.600;5.718;2023-04-03T15:50:53;9.80;47.09
68439;SHT31;55421;51.600;5.718;2023-04-03T15:53:20;9.86;46.35
68439;SHT31;55421;51.600;5.718;2023-04-03T15:55:47;9.92;45.68
68439;SHT31;55421;51.600;5.718;2023-04-03T15:58:13;9.90;45.58
68439;SHT31;55421;51.600;5.718;2023-04-03T16:00:40;9.83;45.93
68439;SHT31;55421;51.600;5.718;2023-04-03T16:03:11;9.87;46.29
68439;SHT31;55421;51.600;5.718;2023-04-03T16:05:41;10.00;46.35
68439;SHT31;55421;51.600;5.718;2023-04-03T16:08:09;10.15;45.91
68439;SHT31;55421;51.600;5.718;2023-04-03T16:10:36;10.25;45.07
68439;SHT31;55421;51.600;5.718;2023-04-03T16:13:05;10.31;45.01
68439;SHT31;55421;51.600;5.718;2023-04-03T16:15:32;10.45;45.35
68439;SHT31;55421;51.600;5.718;2023-04-03T16:18:01;10.62;45.58
68439;SHT31;55421;51.600;5.718;2023-04-03T16:20:28;10.74;44.70
68439;SHT31;55421;51.600;5.718;2023-04-03T16:22:56;10.73;44.30
68439;SHT31;55421;51.600;5.718;2023-04-03T16:25:25;10.60;43.93
68439;SHT31;55421;51.600;5.718;2023-04-03T16:27:52;10.51;44.37
68439;SHT31;55421;51.600;5.718;2023-04-03T16:30:19;10.48;44.49
68439;SHT31;55421;51.600;5.718;2023-04-03T16:32:45;10.36;45.11
68439;SHT31;55421;51.600;5.718;2023-04-03T16:35:12;10.39;45.24
68439;SHT31;55421;51.600;5.718;2023-04-03T16:37:39;10.31;45.27
68439;SHT31;55421;51.600;5.718;2023-04-03T16:40:06;10.48;45.59
68439;SHT31;55421;51.600;5.718;2023-04-03T16:42:34;10.70;45.10
68439;SHT31;55421;51.600;5.718;2023-04-03T16:45:00;10.84;44.74
68439;SHT31;55421;51.600;5.718;2023-04-03T16:47:29;10.78;44.80
68439;SHT31;55421;51.600;5.718;2023-04-03T16:49:56;10.67;45.06
68439;SHT31;55421;51.600;5.718;2023-04-03T16:52:22;10.68;45.06
68439;SHT31;55421;51.600;5.718;2023-04-03T16:54:49;10.70;45.43
68439;SHT31;55421;51.600;5.718;2023-04-03T16:57:21;10.77;44.71
68439;SHT31;55421;51.600;5.718;2023-04-03T16:59:50;10.88;44.49
68439;SHT31;55421;51.600;5.718;2023-04-03T17:02:20;11.01;44.15
68439;SHT31;55421;51.600;5.718;2023-04-03T17:04:51;10.97;44.39
68439;SHT31;55421;51.600;5.718;2023-04-03T17:07:19;11.10;43.90
68439;SHT31;55421;51.600;5.718;2023-04-03T17:09:48;11.23;43.72
68439;SHT31;55421;51.600;5.718;2023-04-03T17:12:15;11.38;43.50
68439;SHT31;55421;51.600;5.718;2023-04-03T17:14:42;11.42;43.26
68439;SHT31;55421;51.600;5.718;2023-04-03T17:17:09;11.32;43.43
68439;SHT31;55421;51.600;5.718;2023-04-03T17:19:36;11.28;43.95
68439;SHT31;55421;51.600;5.718;2023-04-03T17:22:04;11.32;44.00
68439;SHT31;55421;51.600;5.718;2023-04-03T17:24:30;10.90;44.11
68439;SHT31;55421;51.600;5.718;2023-04-03T17:26:57;10.47;44.89
68439;SHT31;55421;51.600;5.718;2023-04-03T17:29:23;10.30;45.46
68439;SHT31;55421;51.600;5.718;2023-04-03T17:31:50;10.26;45.84
68439;SHT31;55421;51.600;5.718;2023-04-03T17:34:16;10.17;46.67
68439;SHT31;55421;51.600;5.718;2023-04-03T17:36:43;10.02;47.22
68439;SHT31;55421;51.600;5.718;2023-04-03T17:39:10;9.80;47.68
68439;SHT31;55421;51.600;5.718;2023-04-03T17:41:37;9.85;47.56
68439;SHT31;55421;51.600;5.718;2023-04-03T17:44:03;9.97;47.11
68439;SHT31;55421;51.600;5.718;2023-04-03T17:46:30;10.00;47.36
68439;SHT31;55421;51.600;5.718;2023-04-03T17:48:57;9.78;47.70
68439;SHT31;55421;51.600;5.718;2023-04-03T17:51:28;9.52;47.64
68439;SHT31;55421;51.600;5.718;2023-04-03T17:53:55;9.20;47.89
68439;SHT31;55421;51.600;5.718;2023-04-03T17:56:22;8.89;48.42